Bei Facebook empfehlenBei Twitter postenGoogle plusPinterest

Das Wetter im Erzgebirge am 15.07.2015

Wetter und Klima am 15.07.2015 Holzhau im Erzgebirge (630m ü.NN)
Letzte gemessene Temperatur und Uhrzeit der Messung23:45:00 Uhr11.90 °C
Temperatur (Maximum / Höchstwert) und Uhrzeit der Messung16:15:00 Uhr23.10 °C
Temperatur (Minimum / Tiefstwert) und Uhrzeit der Messung23:45:0011.90 °C
Errechneter Absolutwert der Temperaturschwankungen zwischen Tmin und Tmax des Tages11.20 K
Errechnete Tagesmitteltemperatur17.12813 °C
Gesamt - Niederschlag des Tages (in flüssiger Form)1.55 Liter / m²
Luftdruck (Maximum / Höchstwert) und Zeitpunkt der Messung12:45:00 Uhr1019.10 hPa
Luftdruck (Minimum / Tiefstwert) und Zeitpunkt der Messung00:00:00 Uhr1015.70 hPa
Errechneter Absolutwert der Luftdruckschwankungen des Tages3.40 hPa
Höchste gemessene Windgeschwindigkeit und Uhrzeit der Messung23:45:00 Uhr0.00 km/h
Errechnete Windhäufigkeit in Relation zu den Messwerten des Tages0.00000 %
Niedrigste Windkühle (Windchill) und Zeitpunkt der Messung23:45:00 Uhr11.90 °C
Taupunkt (Maximum / Höchstwert) und Uhrzeit der Messung16:15:00 Uhr15.20 °C
Taupunkt (Minimum / Tiefstwert) und Uhrzeit der Messung23:45:0010.10 °C
Anzahl der automatisch eingelesenen Messwerte 96

Detaillierte Wetter- und Klima- Messwerte für den 15.07.2015 in Holzhau im Erzgebirge (630m ü.NN)
ZeitTemperaturLuftdruckRel. LuftfeuchteWindWindrichtungWindchillTaupunktNiederschlag l/m²
23:45:0011.90 °C1018.40 hPa89.00 %10.10 °C1.55
23:30:0012.20 °C1018.50 hPa88.00 %10.30 °C1.55
23:15:0012.50 °C1018.70 hPa88.00 %10.60 °C1.55
23:00:0012.70 °C1018.40 hPa88.00 %10.80 °C1.55
22:45:0012.90 °C1018.60 hPa87.00 %10.80 °C1.55
22:30:0013.30 °C1018.50 hPa87.00 %11.20 °C1.55
22:15:0013.50 °C1018.70 hPa86.00 %11.20 °C1.55
22:00:0013.90 °C1018.60 hPa84.00 %11.20 °C1.55
21:45:0014.40 °C1018.50 hPa83.00 %11.60 °C1.55
21:30:0014.90 °C1018.40 hPa81.00 %11.70 °C1.55
21:15:0015.60 °C1018.20 hPa79.00 %12.00 °C1.55
21:00:0016.50 °C1018.20 hPa77.00 %12.50 °C1.55
20:45:0017.50 °C1018.20 hPa74.00 %12.80 °C1.55
20:30:0018.60 °C1018.20 hPa71.00 %13.20 °C1.55
20:15:0019.70 °C1018.20 hPa68.00 %13.60 °C1.55
20:00:0020.50 °C1018.20 hPa66.00 %13.90 °C1.55
19:45:0020.80 °C1018.20 hPa66.00 %14.20 °C1.55
19:30:0020.80 °C1018.50 hPa65.00 %14.00 °C1.55
19:15:0020.80 °C1018.30 hPa65.00 %14.00 °C1.55
19:00:0020.70 °C1018.30 hPa65.00 %13.90 °C1.55
18:45:0020.60 °C1018.60 hPa65.00 %13.80 °C1.55
18:30:0020.50 °C1018.70 hPa64.00 %13.50 °C1.55
18:15:0021.30 °C1018.70 hPa62.00 %13.70 °C1.55
18:00:0021.90 °C1018.70 hPa62.00 %14.30 °C1.55
17:45:0022.20 °C1018.70 hPa60.00 %14.10 °C1.55
17:30:0022.30 °C1018.50 hPa61.00 %14.40 °C1.55
17:15:0022.30 °C1018.70 hPa60.00 %14.20 °C1.55
17:00:0022.10 °C1018.70 hPa61.00 %14.20 °C1.55
16:45:0022.40 °C1018.70 hPa60.00 %14.30 °C1.55
16:30:0022.90 °C1018.60 hPa60.00 %14.70 °C1.55
16:15:0023.10 °C1018.70 hPa61.00 %15.20 °C1.55
16:00:0022.60 °C1018.90 hPa62.00 %15.00 °C1.55
15:45:0023.10 °C1018.70 hPa59.00 %14.70 °C1.55
15:30:0022.60 °C1018.70 hPa62.00 %15.00 °C1.55
15:15:0022.20 °C1018.80 hPa63.00 %14.80 °C1.55
15:00:0022.20 °C1018.80 hPa63.00 %14.80 °C1.55
14:45:0021.40 °C1018.90 hPa64.00 %14.30 °C1.55
14:30:0020.60 °C1019.00 hPa69.00 %14.70 °C1.55
14:15:0020.90 °C1019.00 hPa66.00 %14.30 °C1.55
14:00:0021.20 °C1018.90 hPa66.00 %14.60 °C1.55
13:45:0021.20 °C1018.80 hPa66.00 %14.60 °C1.55
13:30:0021.00 °C1018.90 hPa69.00 %15.10 °C1.55
13:15:0020.50 °C1018.90 hPa70.00 %14.80 °C1.55
13:00:0020.40 °C1019.00 hPa70.00 %14.70 °C1.55
12:45:0019.70 °C1019.10 hPa70.00 %14.10 °C1.55
12:30:0020.30 °C1019.10 hPa71.00 %14.90 °C1.55
12:15:0019.90 °C1019.10 hPa73.00 %14.90 °C1.55
12:00:0019.00 °C1019.00 hPa77.00 %14.90 °C1.55
11:45:0018.10 °C1019.00 hPa78.00 %14.20 °C1.55
11:30:0018.10 °C1019.00 hPa78.00 %14.20 °C1.55
11:15:0018.10 °C1018.80 hPa79.00 %14.40 °C1.55
11:00:0017.60 °C1018.70 hPa81.00 %14.30 °C1.55
10:45:0016.70 °C1018.70 hPa82.00 %13.60 °C1.55
10:30:0017.00 °C1018.60 hPa80.00 %13.50 °C1.55
10:15:0017.60 °C1018.40 hPa83.00 %14.70 °C1.55
10:00:0017.00 °C1018.20 hPa85.00 %14.50 °C1.55
09:45:0016.30 °C1018.30 hPa86.00 %14.00 °C1.55
09:30:0016.40 °C1018.30 hPa86.00 %14.10 °C1.55
09:15:0016.40 °C1018.20 hPa88.00 %14.40 °C1.55
09:00:0016.40 °C1018.10 hPa91.00 %14.90 °C1.55
08:45:0015.40 °C1018.00 hPa92.00 %14.10 °C1.55
08:30:0014.80 °C1018.00 hPa93.00 %13.70 °C1.55
08:15:0014.50 °C1017.90 hPa93.00 %13.40 °C1.55
08:00:0014.10 °C1017.70 hPa93.00 %13.00 °C1.55
07:45:0013.90 °C1017.70 hPa93.00 %12.80 °C1.55
07:30:0013.80 °C1017.60 hPa93.00 %12.70 °C1.55
07:15:0013.80 °C1017.40 hPa93.00 %12.70 °C1.55
07:00:0013.70 °C1017.20 hPa93.00 %12.60 °C1.55
06:45:0013.90 °C1017.10 hPa93.00 %12.80 °C1.55
06:30:0014.10 °C1017.30 hPa93.00 %13.00 °C1.55
06:15:0014.10 °C1016.90 hPa93.00 %13.00 °C1.55
06:00:0014.10 °C1017.10 hPa93.00 %13.00 °C1.55
05:45:0014.10 °C1016.70 hPa93.00 %13.00 °C1.55
05:30:0014.10 °C1016.80 hPa93.00 %13.00 °C1.55
05:15:0014.20 °C1016.80 hPa93.00 %13.10 °C1.55
05:00:0014.10 °C1016.60 hPa93.00 %13.00 °C1.55
04:45:0013.90 °C1016.50 hPa93.00 %12.80 °C1.55
04:30:0013.90 °C1016.40 hPa93.00 %12.80 °C1.55
04:15:0013.80 °C1016.40 hPa93.00 %12.70 °C1.55
04:00:0013.90 °C1016.60 hPa93.00 %12.80 °C1.55
03:45:0014.30 °C1016.40 hPa93.00 %13.20 °C1.55
03:30:0014.60 °C1016.20 hPa93.00 %13.50 °C1.55
03:15:0014.50 °C1016.20 hPa93.00 %13.40 °C1.55
03:00:0014.40 °C1016.00 hPa93.00 %13.30 °C1.55
02:45:0014.40 °C1015.90 hPa93.00 %13.30 °C1.55
02:30:0014.40 °C1016.00 hPa93.00 %13.30 °C1.55
02:15:0014.40 °C1016.00 hPa93.00 %13.30 °C1.55
02:00:0014.40 °C1015.90 hPa92.00 %13.10 °C1.55
01:45:0014.40 °C1015.90 hPa92.00 %13.10 °C1.55
01:30:0014.50 °C1015.80 hPa92.00 %13.20 °C1.55
01:15:0014.50 °C1015.90 hPa92.00 %13.20 °C1.55
01:00:0014.50 °C1015.80 hPa92.00 %13.20 °C1.55
00:45:0014.50 °C1015.90 hPa92.00 %13.20 °C1.55
00:30:0014.60 °C1015.90 hPa92.00 %13.30 °C1.55
00:15:0014.90 °C1015.80 hPa92.00 %13.60 °C1.03
00:00:0015.00 °C1015.70 hPa91.00 %13.50 °C 

Permanenter Link zu dieser Seite: Wetter im Erzgebirge am 15.07.2015
Performance-Info: Die Erstellung der Seite / Statistik(en) / Tabelle(n) erforderte 5 Datenbankserver-Abfrage(n) und dauerte 123 Millisekunden. (Dieser Messwert ist von der Gesamt-Auslastung des Servers abhängig.)
Erzgebirge - Wetter | Erzgebirge - Wetter (Mobilgeräte) | Komplette Klimadatenbank